Time;durP1;ratioP1;P1;durP2;ratioP2;P2;SDS_P1;SDS_P2;PMS_P1;PMS_P2;Temp;Humidity;BMP_temperature;BMP_pressure;BME280_temperature;BME280_humidity;BME280_pressure;Samples;Min_cycle;Max_cycle;Signal;HPM_P1;HPM_P2
2022/02/24 00:09:44;;;;;;;33.85;14.57;;;180.00;2252.80;;;;;;4823578;29;20064;-82
2022/02/24 00:12:22;;;;;;;30.88;14.55;;;179.80;2252.80;;;;;;4823950;29;20033;-83
2022/02/24 00:32:07;;;;;;;20.73;9.75;;;179.70;2252.80;;;;;;4918294;29;20103;-83
2022/02/24 00:34:51;;;;;;;18.00;8.90;;;179.70;2252.80;;;;;;4852648;29;20044;-82
2022/02/24 00:37:17;;;;;;;31.45;13.88;;;179.70;2252.80;;;;;;4844434;29;20057;-82
2022/02/24 00:39:43;;;;;;;27.80;14.05;;;179.70;2252.80;;;;;;4844729;29;20471;-83
2022/02/24 00:42:11;;;;;;;28.45;14.82;;;179.80;2252.80;;;;;;4842991;29;20037;-82
2022/02/24 00:44:38;;;;;;;19.55;10.57;;;179.70;2252.80;;;;;;4825867;29;20077;-82
2022/02/24 00:47:04;;;;;;;29.58;15.80;;;179.60;2252.80;;;;;;4809232;29;20034;-81
2022/02/24 00:49:30;;;;;;;30.77;15.20;;;179.40;2252.80;;;;;;4808058;29;20040;-83
2022/02/24 00:52:00;;;;;;;21.05;8.68;;;179.60;2252.80;;;;;;4838758;29;20062;-82
2022/02/24 00:54:34;;;;;;;27.52;10.45;;;179.60;2252.80;;;;;;4808150;29;20038;-82
2022/02/24 00:57:11;;;;;;;20.65;9.70;;;179.70;2252.80;;;;;;4807889;29;20121;-82
2022/02/24 00:59:42;;;;;;;23.02;9.57;;;179.70;2252.80;;;;;;4807955;29;20133;-82
2022/02/24 01:02:16;;;;;;;21.58;10.52;;;179.60;2252.80;;;;;;4807859;29;20075;-82
2022/02/24 01:05:19;;;;;;;29.85;12.48;;;179.60;2252.80;;;;;;4820183;29;20024;-83
2022/02/24 01:08:16;;;;;;;;;;;;;;;;;;;;;
2022/02/24 01:11:25;;;;;;;32.53;14.15;;;179.50;2252.80;;;;;;4896368;29;19903;-83
2022/02/24 01:14:11;;;;;;;23.63;10.80;;;179.50;2252.80;;;;;;4858592;29;20463;-83
2022/02/24 01:16:40;;;;;;;24.38;9.57;;;179.50;2252.80;;;;;;4881321;29;20029;-83
2022/02/24 01:19:11;;;;;;;17.75;7.47;;;179.40;2252.80;;;;;;4881976;29;20032;-84
2022/02/24 01:21:42;;;;;;;13.75;6.38;;;179.40;2252.80;;;;;;4882012;29;20025;-82
2022/02/24 01:24:08;;;;;;;14.40;7.00;;;179.40;2252.80;;;;;;4882561;29;20040;-81
2022/02/24 01:30:48;;;;;;;15.15;6.35;;;179.50;2252.80;;;;;;4840734;29;20375;-83
2022/02/24 01:33:25;;;;;;;;;;;179.50;2252.80;;;;;;4837596;29;20043;-83
2022/02/24 01:46:05;;;;;;;26.27;12.15;;;179.50;2252.80;;;;;;4898396;29;20052;-83
2022/02/24 01:49:41;;;;;;;23.67;11.48;;;179.90;2252.80;;;;;;4880542;29;20021;-83
2022/02/24 01:52:36;;;;;;;30.13;11.60;;;179.50;2252.80;;;;;;4881603;29;20017;-82
2022/02/24 01:55:49;;;;;;;21.05;10.60;;;179.50;2252.80;;;;;;4881378;29;20029;-83
2022/02/24 01:58:38;;;;;;;17.58;8.90;;;179.40;2252.80;;;;;;4881812;29;20033;-83
2022/02/24 02:01:13;;;;;;;18.88;8.32;;;179.40;2252.80;;;;;;4881495;29;20036;-82
2022/02/24 02:07:43;;;;;;;18.50;6.85;;;179.70;2252.80;;;;;;4917990;29;20031;-81
2022/02/24 02:11:12;;;;;;;;;;;;;;;;;;;;;
2022/02/24 02:13:44;;;;;;;16.77;8.02;;;179.40;2252.80;;;;;;4898976;29;20035;-80
2022/02/24 02:16:12;;;;;;;17.10;7.70;;;179.40;2252.80;;;;;;4883526;29;20043;-82
2022/02/24 02:18:38;;;;;;;15.25;5.80;;;179.30;2252.80;;;;;;4885195;29;20028;-82
2022/02/24 02:21:04;;;;;;;17.92;6.38;;;179.40;2252.80;;;;;;4885403;29;20084;-84
2022/02/24 02:23:39;;;;;;;11.43;5.20;;;179.40;2252.80;;;;;;4885358;29;20055;-84
2022/02/24 07:01:32;;;;;;;23.80;12.65;;;154.10;2252.80;;;;;;5460252;23;20090;-81
2022/02/24 09:48:02;;;;;;;31.02;17.35;;;256.40;1612.80;;;;;;4898452;29;20089;-85
2022/02/24 09:51:07;;;;;;;26.90;15.97;;;256.50;1664.00;;;;;;4881740;29;20025;-86
2022/02/24 09:58:10;;;;;;;25.00;13.98;;;256.50;1638.40;;;;;;4840451;29;20038;-87
2022/02/24 10:07:26;;;;;;;17.98;11.18;;;256.80;1587.20;;;;;;4859283;29;20075;-82
2022/02/24 10:09:52;;;;;;;18.13;9.90;;;256.70;1561.60;;;;;;4899769;29;20481;-81
2022/02/24 10:12:18;;;;;;;12.95;6.47;;;256.70;1536.00;;;;;;4900008;29;20039;-82
2022/02/24 10:15:02;;;;;;;12.18;5.93;;;256.70;1536.00;;;;;;4899925;29;20420;-84
2022/02/24 10:17:28;;;;;;;11.23;6.82;;;256.80;1536.00;;;;;;4899580;29;20028;-84
2022/02/24 10:19:54;;;;;;;10.75;6.00;;;281.60;1587.20;;;;;;4899784;29;20606;-78
2022/02/24 10:22:29;;;;;;;11.20;7.20;;;256.90;1536.00;;;;;;4916900;29;20062;-82
2022/02/24 10:25:01;;;;;;;8.45;6.07;;;281.60;1561.60;;;;;;4899450;29;20032;-77
2022/02/24 10:27:29;;;;;;;11.68;8.10;;;281.60;1561.60;;;;;;4899874;29;20087;-82
2022/02/24 10:30:29;;;;;;;16.10;9.43;;;281.60;1536.00;;;;;;4899924;29;20027;-81
2022/02/24 10:32:56;;;;;;;16.45;9.40;;;281.80;1612.80;;;;;;4916606;29;20027;-78
2022/02/24 10:35:45;;;;;;;11.18;6.30;;;281.90;1561.60;;;;;;4899855;29;20372;-79
2022/02/24 10:38:17;;;;;;;13.98;8.68;;;282.00;1536.00;;;;;;4903008;29;20622;-82
2022/02/24 10:40:46;;;;;;;11.75;6.88;;;282.00;1587.20;;;;;;4903475;29;20024;-78
2022/02/24 10:43:18;;;;;;;8.20;4.32;;;282.00;1587.20;;;;;;4903542;29;20457;-83
2022/02/24 10:45:48;;;;;;;19.33;12.52;;;281.90;1536.00;;;;;;4903176;29;20485;-81
2022/02/24 10:48:14;;;;;;;12.90;9.02;;;281.90;1561.60;;;;;;4903586;29;20028;-82
2022/02/24 10:50:55;;;;;;;12.90;8.02;;;281.90;1561.60;;;;;;4903492;29;20472;-80
2022/02/24 10:53:34;;;;;;;17.90;12.38;;;281.90;1587.20;;;;;;4903243;29;20051;-79
2022/02/24 10:56:03;;;;;;;25.35;15.20;;;282.00;1587.20;;;;;;4903496;29;20028;-80
2022/02/24 10:58:31;;;;;;;16.83;8.98;;;282.00;1612.80;;;;;;4903008;29;20170;-80
2022/02/24 11:01:45;;;;;;;11.48;6.55;;;282.10;1587.20;;;;;;4903397;29;20028;-83
2022/02/24 11:07:41;;;;;;;25.10;14.25;;;282.40;1536.00;;;;;;4897343;29;20029;-78
2022/02/24 11:10:08;;;;;;;24.88;16.88;;;307.20;1536.00;;;;;;4903087;29;20472;-79
2022/02/24 11:12:34;;;;;;;25.85;16.67;;;307.30;1536.00;;;;;;4902485;29;20068;-80
2022/02/24 11:15:01;;;;;;;13.25;8.43;;;307.40;1510.40;;;;;;4902801;29;20349;-82
2022/02/24 11:17:31;;;;;;;19.05;8.07;;;307.40;1536.00;;;;;;4902580;29;20024;-82
2022/02/24 11:19:58;;;;;;;18.77;7.22;;;307.50;1536.00;;;;;;4886869;29;20021;-82
2022/02/24 11:22:27;;;;;;;13.30;9.20;;;307.50;1510.40;;;;;;4902702;29;20030;-81
2022/02/24 11:25:14;;;;;;;14.27;9.20;;;307.60;1510.40;;;;;;4902866;29;20028;-81
2022/02/24 11:27:46;;;;;;;11.60;7.22;;;307.80;1484.80;;;;;;4902628;29;20024;-80
2022/02/24 11:30:36;;;;;;;17.48;9.15;;;307.90;1459.20;;;;;;4902508;29;20092;-81
2022/02/24 11:33:02;;;;;;;16.17;9.20;;;307.90;1459.20;;;;;;4898282;29;20064;-84
2022/02/24 11:35:32;;;;;;;21.73;13.07;;;308.00;1484.80;;;;;;4883457;29;20029;-83
2022/02/24 11:38:15;;;;;;;20.55;10.52;;;332.80;1484.80;;;;;;4883828;29;20024;-83
2022/02/24 11:40:42;;;;;;;14.27;8.50;;;333.10;1459.20;;;;;;4883503;29;20024;-81
2022/02/24 11:46:13;;;;;;;21.00;10.57;;;333.40;1484.80;;;;;;4880091;29;20040;-82
2022/02/24 11:49:48;;;;;;;16.80;8.52;;;333.70;1459.20;;;;;;4883162;29;20025;-82
2022/02/24 11:52:03;;;;;;;12.25;6.63;;;358.60;1433.60;;;;;;4891636;29;20362;-83
2022/02/24 11:54:41;;;;;;;17.45;9.45;;;358.80;1459.20;;;;;;4882313;29;20024;-80
2022/02/24 11:57:42;;;;;;;11.85;7.68;;;359.10;1408.00;;;;;;4883703;29;20114;-82
2022/02/24 12:00:20;;;;;;;17.08;9.68;;;359.20;1408.00;;;;;;4883569;29;20505;-84
2022/02/24 12:03:38;;;;;;;19.15;10.13;;;384.20;1408.00;;;;;;4882912;29;20080;-82
2022/02/24 12:06:47;;;;;;;;;;;;;;;;;;;;;
2022/02/24 12:33:42;;;;;;;9.52;5.13;;;410.40;1305.60;;;;;;4787739;30;20141;-82
2022/02/24 12:36:41;;;;;;;17.23;9.57;;;435.30;1280.00;;;;;;4792788;29;20027;-84
2022/02/24 12:39:17;;;;;;;14.52;9.20;;;435.50;1254.40;;;;;;4878634;29;20092;-82
2022/02/24 12:59:01;;;;;;;13.30;8.57;;;460.80;1254.40;;;;;;4849646;29;20513;-80
2022/02/24 13:01:50;;;;;;;;;;;;;;;;;;;;;
2022/02/24 13:04:17;;;;;;;36.97;20.95;;;461.10;1254.40;;;;;;4880102;29;20021;-81
2022/02/24 13:06:45;;;;;;;17.15;9.52;;;460.90;1254.40;;;;;;4863341;29;20028;-80
2022/02/24 13:12:19;;;;;;;11.45;8.15;;;461.20;1228.80;;;;;;4880138;29;20029;-78
2022/02/24 13:14:46;;;;;;;13.15;7.60;;;461.10;1254.40;;;;;;4862804;29;20039;-79
2022/02/24 13:17:46;;;;;;;19.58;10.52;;;461.10;1203.20;;;;;;4863464;29;20524;-83
2022/02/24 13:20:22;;;;;;;12.07;8.35;;;460.90;1228.80;;;;;;4862975;29;20351;-81
2022/02/24 13:22:48;;;;;;;16.08;9.95;;;461.10;1228.80;;;;;;4863274;29;20028;-84
2022/02/24 13:25:14;;;;;;;16.55;8.60;;;461.10;1203.20;;;;;;4862923;29;20025;-83
2022/02/24 13:27:46;;;;;;;13.93;7.57;;;461.20;1254.40;;;;;;4862139;29;20061;-82
2022/02/24 13:30:13;;;;;;;16.80;11.10;;;461.20;1203.20;;;;;;4863517;29;20085;-81
2022/02/24 13:32:39;;;;;;;14.38;10.07;;;461.10;1228.80;;;;;;4862906;29;20028;-82
2022/02/24 13:35:11;;;;;;;18.77;12.65;;;461.40;1228.80;;;;;;4863174;29;20033;-82
2022/02/24 13:37:39;;;;;;;13.60;8.32;;;461.20;1228.80;;;;;;4862813;29;20044;-80
2022/02/24 13:40:14;;;;;;;9.75;5.60;;;461.10;1254.40;;;;;;4862749;29;20206;-81
2022/02/24 13:43:15;;;;;;;11.32;6.35;;;461.10;1228.80;;;;;;4862762;29;20347;-82
2022/02/24 13:45:42;;;;;;;10.32;6.07;;;461.30;1228.80;;;;;;4866558;29;20139;-81
2022/02/24 13:48:29;;;;;;;11.60;6.13;;;461.30;1203.20;;;;;;4881371;29;20123;-82
2022/02/24 13:51:02;;;;;;;9.57;5.57;;;461.00;1177.60;;;;;;4881574;29;20028;-83
2022/02/24 13:53:38;;;;;;;12.52;5.70;;;461.30;1203.20;;;;;;4898064;29;20444;-84
2022/02/24 13:56:26;;;;;;;15.27;8.95;;;460.90;1203.20;;;;;;4881850;29;20137;-81
2022/02/24 13:58:58;;;;;;;12.40;8.35;;;461.10;1228.80;;;;;;4881122;29;20119;-85
2022/02/24 14:01:27;;;;;;;17.10;9.38;;;461.30;1228.80;;;;;;4881089;29;20104;-84
2022/02/24 14:03:55;;;;;;;10.77;6.60;;;461.30;1228.80;;;;;;4881217;29;20028;-81
2022/02/24 14:06:30;;;;;;;10.43;5.80;;;460.90;1203.20;;;;;;4881248;29;20020;-84
2022/02/24 14:08:58;;;;;;;11.73;6.38;;;460.90;1228.80;;;;;;4881218;29;20021;-82
2022/02/24 14:11:51;;;;;;;;;;;;;;;;;;;;;
2022/02/24 14:14:22;;;;;;;19.90;10.65;;;436.10;1203.20;;;;;;4901786;29;20028;-88
2022/02/24 14:17:16;;;;;;;20.35;11.23;;;435.90;1203.20;;;;;;4885090;29;20076;-90
2022/02/24 14:20:26;;;;;;;14.95;9.85;;;435.60;1228.80;;;;;;4869147;29;20043;-90
2022/02/24 14:23:42;;;;;;;37.17;23.48;;;435.20;1254.40;;;;;;4868439;29;20028;-89
2022/02/24 14:56:26;;;;;;;51.67;29.63;;;333.60;1382.40;;;;;;4825713;29;20062;-90
2022/02/24 15:06:25;;;;;;;70.57;35.75;;;332.90;1408.00;;;;;;4789839;30;20042;-85
2022/02/24 15:12:57;;;;;;;;;;;;;;;;;;;;;
2022/02/24 15:30:51;;;;;;;52.83;32.83;;;332.90;1484.80;;;;;;4608894;31;20043;-86
2022/02/24 15:33:27;;;;;;;49.72;30.98;;;332.80;1484.80;;;;;;4609288;31;20078;-85
2022/02/24 15:40:35;;;;;;;85.88;46.17;;;308.10;1484.80;;;;;;4615445;31;20047;-87
2022/02/24 15:43:31;;;;;;;66.35;34.30;;;307.90;1510.40;;;;;;4687968;29;20375;-87
2022/02/24 15:46:29;;;;;;;;;;;;;;;;;;;;;
2022/02/24 15:49:02;;;;;;;50.40;29.92;;;307.70;1536.00;;;;;;4824881;29;20037;-87
2022/02/24 15:52:18;;;;;;;57.13;32.25;;;307.90;1561.60;;;;;;4829354;29;20030;-87
2022/02/24 15:54:25;;;;;;;39.67;23.95;;;307.40;1536.00;;;;;;4864649;29;20052;-84
2022/02/24 15:58:13;;;;;;;78.33;46.37;;;307.30;1536.00;;;;;;4864604;29;20032;-87
2022/02/24 16:00:31;;;;;;;42.15;27.40;;;307.20;1536.00;;;;;;4782723;29;21210;-88
2022/02/24 16:03:23;;;;;;;32.88;22.92;;;282.40;1510.40;;;;;;4797860;29;20112;-86
2022/02/24 16:05:49;;;;;;;41.58;25.95;;;282.20;1536.00;;;;;;4856626;29;20037;-86
2022/02/24 16:08:38;;;;;;;35.25;21.60;;;282.10;1561.60;;;;;;4863200;29;20496;-86
2022/02/24 16:11:44;;;;;;;43.28;27.30;;;282.00;1561.60;;;;;;4864236;29;20107;-85
2022/02/24 16:14:39;;;;;;;41.03;23.92;;;281.70;1612.80;;;;;;4880714;29;20032;-86
2022/02/24 16:27:42;;;;;;;61.33;41.13;;;256.60;1587.20;;;;;;4824396;29;20540;-87
2022/02/24 16:34:42;;;;;;;91.10;59.90;;;256.40;1612.80;;;;;;4753221;29;20189;-86
2022/02/24 16:40:42;;;;;;;67.88;44.95;;;231.30;1612.80;;;;;;4758069;30;20039;-83
2022/02/24 18:13:27;;;;;;;166.95;108.50;;;205.00;1920.00;;;;;;4896791;29;20051;-86
2022/02/24 18:23:17;;;;;;;178.23;116.88;;;180.10;1920.00;;;;;;4879283;29;20092;-84
2022/02/24 18:26:01;;;;;;;224.48;142.07;;;179.90;1945.60;;;;;;4861972;29;20129;-84
2022/02/24 18:29:09;;;;;;;259.95;164.63;;;179.90;1945.60;;;;;;4877944;29;20378;-86
2022/02/24 18:35:22;;;;;;;215.50;135.00;;;179.80;1971.20;;;;;;5070722;23;20067;-83
2022/02/24 18:49:15;;;;;;;;;;;;;;;;;;;;;
2022/02/24 19:02:43;;;;;;;;;;;;;;;;;;;;;
2022/02/24 19:08:45;;;;;;;110.57;71.70;;;179.20;2022.40;;;;;;4842858;29;20038;-82
2022/02/24 19:12:18;;;;;;;;;;;;;;;;;;;;;
2022/02/24 19:25:14;;;;;;;156.90;94.32;;;154.10;2073.60;;;;;;4861941;29;20032;-83
2022/02/24 19:49:20;;;;;;;171.15;106.53;;;153.70;2099.20;;;;;;4861271;29;20080;-83
2022/02/24 20:51:05;;;;;;;258.13;156.30;;;128.40;2227.20;;;;;;4919835;23;20053;-81
2022/02/24 20:53:40;;;;;;;283.40;160.95;;;128.40;2227.20;;;;;;4882082;29;20057;-77
2022/02/24 20:59:43;;;;;;;192.35;116.78;;;103.20;2201.60;;;;;;4898842;29;20067;-81
2022/02/24 21:02:54;;;;;;;;;;;;;;;;;;;;;
2022/02/24 21:05:23;;;;;;;195.25;111.55;;;103.10;2227.20;;;;;;4898838;29;20028;-83
2022/02/24 21:07:49;;;;;;;241.82;127.82;;;103.30;2227.20;;;;;;4882197;29;20033;-83
2022/02/24 21:10:20;;;;;;;231.77;125.95;;;103.20;2227.20;;;;;;4881630;29;20470;-83
2022/02/24 21:12:58;;;;;;;276.67;140.48;;;103.10;2227.20;;;;;;4881120;29;20037;-83
2022/02/24 21:15:27;;;;;;;279.23;145.85;;;103.10;2227.20;;;;;;4882065;29;20171;-83
2022/02/24 21:18:35;;;;;;;116.55;67.30;;;103.00;2227.20;;;;;;4881895;29;20032;-84
2022/02/24 21:21:05;;;;;;;145.35;83.43;;;102.50;2227.20;;;;;;4860744;29;20056;-83
2022/02/24 21:23:31;;;;;;;166.50;92.80;;;102.80;2227.20;;;;;;4882651;29;20027;-83
2022/02/24 21:26:03;;;;;;;120.65;69.68;;;102.70;2227.20;;;;;;4882566;29;20029;-84
2022/02/24 21:28:29;;;;;;;156.50;91.93;;;102.70;2227.20;;;;;;4882398;29;20035;-82
2022/02/24 21:30:55;;;;;;;160.13;95.78;;;102.60;2227.20;;;;;;4882543;29;20032;-83
2022/02/24 21:33:21;;;;;;;132.05;78.57;;;102.50;2227.20;;;;;;4882126;29;20171;-85
2022/02/24 21:35:48;;;;;;;96.25;57.60;;;102.40;2227.20;;;;;;4882344;29;20032;-83
2022/02/24 21:38:16;;;;;;;90.43;52.55;;;102.60;2227.20;;;;;;4882434;29;20462;-85
2022/02/24 21:40:43;;;;;;;112.60;57.38;;;102.40;2227.20;;;;;;4881792;29;20035;-82
2022/02/24 21:43:09;;;;;;;146.07;76.10;;;102.40;2227.20;;;;;;4882280;29;20025;-81
2022/02/24 21:45:35;;;;;;;238.18;116.00;;;77.70;2227.20;;;;;;4882070;29;20028;-80
2022/02/24 21:48:22;;;;;;;90.55;54.25;;;77.70;2227.20;;;;;;4881656;29;20017;-83
2022/02/24 21:50:49;;;;;;;96.57;54.70;;;77.50;2227.20;;;;;;4882049;29;20082;-79
2022/02/24 21:53:18;;;;;;;111.65;62.40;;;102.50;2227.20;;;;;;4881260;29;20044;-81
2022/02/24 21:55:47;;;;;;;107.43;64.40;;;77.40;2227.20;;;;;;4881451;29;20017;-81
2022/02/24 21:58:25;;;;;;;89.90;51.80;;;77.30;2227.20;;;;;;4898705;29;20072;-83
2022/02/24 22:17:47;;;;;;;164.02;97.78;;;77.20;2227.20;;;;;;4840677;29;20531;-80
2022/02/24 22:20:13;;;;;;;187.02;109.45;;;77.20;2227.20;;;;;;4825618;29;20022;-77
2022/02/24 22:22:39;;;;;;;190.60;112.57;;;77.20;2227.20;;;;;;4879481;29;20032;-81
2022/02/24 22:25:10;;;;;;;187.95;115.50;;;77.20;2227.20;;;;;;4881232;29;20024;-79
2022/02/24 22:28:05;;;;;;;110.47;64.40;;;77.20;2227.20;;;;;;4881343;29;20028;-79
2022/02/24 22:30:34;;;;;;;73.90;44.47;;;77.30;2227.20;;;;;;4869244;29;20544;-79
2022/02/24 22:32:59;;;;;;;71.07;40.38;;;77.40;2227.20;;;;;;4882890;29;20035;-82
2022/02/24 22:35:25;;;;;;;62.75;35.72;;;77.40;2227.20;;;;;;4884807;29;20020;-78
2022/02/24 22:37:51;;;;;;;66.78;36.28;;;77.40;2227.20;;;;;;4901361;29;20031;-82
2022/02/24 22:40:17;;;;;;;69.38;39.35;;;77.40;2227.20;;;;;;4884445;29;20367;-83
2022/02/24 22:42:43;;;;;;;75.10;41.83;;;77.20;2227.20;;;;;;4884707;29;20556;-83
2022/02/24 22:45:09;;;;;;;90.63;56.90;;;77.10;2227.20;;;;;;4885340;29;20089;-83
2022/02/24 22:47:35;;;;;;;115.32;74.85;;;77.10;2227.20;;;;;;4885126;29;20039;-83
2022/02/24 22:50:02;;;;;;;96.03;58.13;;;77.00;2227.20;;;;;;4884741;29;20024;-82
2022/02/24 22:52:27;;;;;;;102.80;64.65;;;77.10;2227.20;;;;;;4884420;29;20560;-83
2022/02/24 22:54:53;;;;;;;97.97;56.45;;;77.10;2227.20;;;;;;4884332;29;20108;-83
2022/02/24 22:57:19;;;;;;;95.35;54.78;;;77.10;2227.20;;;;;;4884536;29;20032;-82
2022/02/24 22:59:45;;;;;;;83.50;47.00;;;76.90;2227.20;;;;;;4891768;29;20036;-84
2022/02/24 23:07:58;;;;;;;98.45;52.35;;;77.00;2227.20;;;;;;4907381;29;20380;-81
2022/02/24 23:10:27;;;;;;;112.43;63.72;;;77.00;2227.20;;;;;;4882687;29;20028;-83
2022/02/24 23:12:53;;;;;;;124.07;71.30;;;77.00;2227.20;;;;;;4884323;29;20472;-84
2022/02/24 23:15:18;;;;;;;111.90;63.50;;;77.00;2227.20;;;;;;4884352;29;20115;-83
2022/02/24 23:17:44;;;;;;;123.95;67.80;;;77.00;2227.20;;;;;;4884442;29;20120;-82
2022/02/24 23:20:10;;;;;;;146.32;80.45;;;77.00;2227.20;;;;;;4884525;29;20055;-85
2022/02/24 23:22:38;;;;;;;115.80;68.47;;;77.00;2227.20;;;;;;4884477;29;20666;-84
2022/02/24 23:25:05;;;;;;;107.75;61.25;;;77.00;2227.20;;;;;;4883705;29;20115;-85
2022/02/24 23:27:38;;;;;;;100.95;63.00;;;77.00;2227.20;;;;;;4884467;29;20028;-84
2022/02/24 23:30:05;;;;;;;113.47;64.78;;;76.90;2227.20;;;;;;4884388;29;20028;-85
2022/02/24 23:32:31;;;;;;;117.40;69.80;;;52.10;2227.20;;;;;;4883814;29;20020;-84
2022/02/24 23:34:57;;;;;;;113.85;65.07;;;76.90;2227.20;;;;;;4884759;29;20107;-85
2022/02/24 23:37:22;;;;;;;109.15;63.05;;;76.80;2227.20;;;;;;4883955;29;20025;-83
2022/02/24 23:39:48;;;;;;;110.47;65.13;;;52.10;2227.20;;;;;;4886510;29;20020;-82
2022/02/24 23:42:16;;;;;;;120.78;67.78;;;52.10;2227.20;;;;;;4908222;29;20037;-78
2022/02/24 23:44:42;;;;;;;118.43;65.03;;;76.80;2227.20;;;;;;4888048;29;20541;-79
2022/02/24 23:47:08;;;;;;;94.13;55.08;;;52.10;2227.20;;;;;;4883914;29;20060;-83
2022/02/24 23:52:32;;;;;;;102.57;60.05;;;52.10;2227.20;;;;;;4899801;29;20481;-83
2022/02/24 23:54:59;;;;;;;88.20;53.47;;;26.40;2201.60;;;;;;4883815;29;20059;-85
2022/02/24 23:57:34;;;;;;;74.20;41.40;;;51.90;2227.20;;;;;;4883544;29;20029;-82
